sensor_id;sensor_type;location;lat;lon;timestamp;P1;durP1;ratioP1;P2;durP2;ratioP2
41693;SDS011;27377;50.666;9.150;2022-09-16T00:01:09;8.40;;;2.10;;
41693;SDS011;27377;50.666;9.150;2022-09-16T00:03:39;7.07;;;2.15;;
41693;SDS011;27377;50.666;9.150;2022-09-16T00:06:05;5.35;;;1.88;;
41693;SDS011;27377;50.666;9.150;2022-09-16T00:08:31;7.38;;;1.75;;
41693;SDS011;27377;50.666;9.150;2022-09-16T00:11:01;6.60;;;2.03;;
41693;SDS011;27377;50.666;9.150;2022-09-16T00:13:26;6.32;;;1.98;;
41693;SDS011;27377;50.666;9.150;2022-09-16T00:15:53;6.55;;;1.90;;
41693;SDS011;27377;50.666;9.150;2022-09-16T00:18:19;5.20;;;1.80;;
41693;SDS011;27377;50.666;9.150;2022-09-16T00:20:48;6.03;;;1.83;;
41693;SDS011;27377;50.666;9.150;2022-09-16T00:23:15;6.07;;;1.93;;
41693;SDS011;27377;50.666;9.150;2022-09-16T00:25:41;4.85;;;1.73;;
41693;SDS011;27377;50.666;9.150;2022-09-16T00:28:08;3.55;;;1.75;;
41693;SDS011;27377;50.666;9.150;2022-09-16T00:30:33;4.90;;;1.70;;
41693;SDS011;27377;50.666;9.150;2022-09-16T00:32:59;4.75;;;1.92;;
41693;SDS011;27377;50.666;9.150;2022-09-16T00:35:25;6.78;;;2.20;;
41693;SDS011;27377;50.666;9.150;2022-09-16T00:37:51;8.82;;;2.35;;
41693;SDS011;27377;50.666;9.150;2022-09-16T00:40:16;7.90;;;2.08;;
41693;SDS011;27377;50.666;9.150;2022-09-16T00:42:42;5.13;;;1.97;;
41693;SDS011;27377;50.666;9.150;2022-09-16T00:45:12;4.78;;;1.98;;
41693;SDS011;27377;50.666;9.150;2022-09-16T00:53:16;7.32;;;1.90;;
41693;SDS011;27377;50.666;9.150;2022-09-16T00:55:47;5.30;;;1.90;;
41693;SDS011;27377;50.666;9.150;2022-09-16T00:58:23;5.05;;;1.90;;
41693;SDS011;27377;50.666;9.150;2022-09-16T01:00:55;8.68;;;2.00;;
41693;SDS011;27377;50.666;9.150;2022-09-16T01:03:20;5.53;;;2.00;;
41693;SDS011;27377;50.666;9.150;2022-09-16T01:05:47;6.95;;;2.10;;
41693;SDS011;27377;50.666;9.150;2022-09-16T01:08:13;6.55;;;1.90;;
41693;SDS011;27377;50.666;9.150;2022-09-16T01:10:39;6.67;;;1.87;;
41693;SDS011;27377;50.666;9.150;2022-09-16T01:13:07;5.55;;;1.98;;
41693;SDS011;27377;50.666;9.150;2022-09-16T01:31:52;6.70;;;1.90;;
41693;SDS011;27377;50.666;9.150;2022-09-16T01:40:34;6.68;;;2.00;;
41693;SDS011;27377;50.666;9.150;2022-09-16T01:43:29;6.15;;;2.10;;
41693;SDS011;27377;50.666;9.150;2022-09-16T01:46:32;6.13;;;2.20;;
41693;SDS011;27377;50.666;9.150;2022-09-16T01:52:10;6.75;;;1.83;;
41693;SDS011;27377;50.666;9.150;2022-09-16T01:54:55;6.30;;;1.88;;
41693;SDS011;27377;50.666;9.150;2022-09-16T01:57:34;9.93;;;2.35;;
41693;SDS011;27377;50.666;9.150;2022-09-16T02:00:05;6.40;;;2.08;;
41693;SDS011;27377;50.666;9.150;2022-09-16T02:02:42;5.95;;;1.90;;
41693;SDS011;27377;50.666;9.150;2022-09-16T02:05:21;6.60;;;2.07;;
41693;SDS011;27377;50.666;9.150;2022-09-16T02:08:04;6.13;;;2.30;;
41693;SDS011;27377;50.666;9.150;2022-09-16T02:10:40;6.22;;;2.10;;
41693;SDS011;27377;50.666;9.150;2022-09-16T02:13:19;7.38;;;2.50;;
41693;SDS011;27377;50.666;9.150;2022-09-16T02:16:09;6.10;;;2.25;;
41693;SDS011;27377;50.666;9.150;2022-09-16T02:18:41;4.93;;;2.20;;
41693;SDS011;27377;50.666;9.150;2022-09-16T02:21:12;4.82;;;2.05;;
41693;SDS011;27377;50.666;9.150;2022-09-16T02:23:44;7.20;;;2.40;;
41693;SDS011;27377;50.666;9.150;2022-09-16T02:26:14;8.77;;;2.30;;
41693;SDS011;27377;50.666;9.150;2022-09-16T02:28:43;6.68;;;2.47;;
41693;SDS011;27377;50.666;9.150;2022-09-16T02:31:12;11.23;;;2.60;;
41693;SDS011;27377;50.666;9.150;2022-09-16T02:33:46;5.47;;;2.40;;
41693;SDS011;27377;50.666;9.150;2022-09-16T02:36:21;8.10;;;2.50;;
41693;SDS011;27377;50.666;9.150;2022-09-16T02:38:57;8.38;;;2.50;;
41693;SDS011;27377;50.666;9.150;2022-09-16T02:41:32;6.13;;;2.20;;
41693;SDS011;27377;50.666;9.150;2022-09-16T02:43:59;11.75;;;2.45;;
41693;SDS011;27377;50.666;9.150;2022-09-16T02:49:17;4.60;;;2.20;;
41693;SDS011;27377;50.666;9.150;2022-09-16T02:51:59;6.97;;;2.38;;
41693;SDS011;27377;50.666;9.150;2022-09-16T02:57:11;5.80;;;2.58;;
41693;SDS011;27377;50.666;9.150;2022-09-16T02:59:37;5.53;;;2.40;;
41693;SDS011;27377;50.666;9.150;2022-09-16T03:02:03;6.05;;;2.20;;
41693;SDS011;27377;50.666;9.150;2022-09-16T03:04:29;6.47;;;2.60;;
41693;SDS011;27377;50.666;9.150;2022-09-16T03:06:55;5.87;;;2.03;;
41693;SDS011;27377;50.666;9.150;2022-09-16T03:09:21;4.43;;;1.80;;
41693;SDS011;27377;50.666;9.150;2022-09-16T03:12:01;6.93;;;2.00;;
41693;SDS011;27377;50.666;9.150;2022-09-16T03:14:45;4.65;;;2.08;;
41693;SDS011;27377;50.666;9.150;2022-09-16T03:23:17;7.97;;;2.40;;
41693;SDS011;27377;50.666;9.150;2022-09-16T03:26:05;5.47;;;2.35;;
41693;SDS011;27377;50.666;9.150;2022-09-16T03:28:46;5.55;;;2.10;;
41693;SDS011;27377;50.666;9.150;2022-09-16T03:31:30;6.35;;;2.20;;
41693;SDS011;27377;50.666;9.150;2022-09-16T03:34:08;6.80;;;2.22;;
41693;SDS011;27377;50.666;9.150;2022-09-16T03:36:51;5.75;;;2.22;;
41693;SDS011;27377;50.666;9.150;2022-09-16T03:39:21;5.80;;;2.30;;
41693;SDS011;27377;50.666;9.150;2022-09-16T03:41:46;5.10;;;2.13;;
41693;SDS011;27377;50.666;9.150;2022-09-16T03:44:13;5.13;;;2.03;;
41693;SDS011;27377;50.666;9.150;2022-09-16T03:46:38;7.30;;;2.20;;
41693;SDS011;27377;50.666;9.150;2022-09-16T03:49:04;6.27;;;2.13;;
41693;SDS011;27377;50.666;9.150;2022-09-16T03:51:29;4.77;;;1.93;;
41693;SDS011;27377;50.666;9.150;2022-09-16T03:53:55;6.40;;;2.07;;
41693;SDS011;27377;50.666;9.150;2022-09-16T03:56:21;3.80;;;1.80;;
41693;SDS011;27377;50.666;9.150;2022-09-16T03:58:48;5.55;;;2.00;;
41693;SDS011;27377;50.666;9.150;2022-09-16T04:01:14;7.05;;;2.10;;
41693;SDS011;27377;50.666;9.150;2022-09-16T04:03:40;8.23;;;2.25;;
41693;SDS011;27377;50.666;9.150;2022-09-16T04:06:06;5.20;;;2.00;;
41693;SDS011;27377;50.666;9.150;2022-09-16T04:08:33;7.43;;;2.00;;
41693;SDS011;27377;50.666;9.150;2022-09-16T04:11:00;5.90;;;2.20;;
41693;SDS011;27377;50.666;9.150;2022-09-16T04:13:29;8.45;;;2.00;;
41693;SDS011;27377;50.666;9.150;2022-09-16T04:15:59;6.40;;;2.00;;
41693;SDS011;27377;50.666;9.150;2022-09-16T04:18:25;5.60;;;1.95;;
41693;SDS011;27377;50.666;9.150;2022-09-16T04:20:58;8.13;;;2.03;;
41693;SDS011;27377;50.666;9.150;2022-09-16T04:23:25;6.47;;;2.20;;
41693;SDS011;27377;50.666;9.150;2022-09-16T04:25:55;5.75;;;1.88;;
41693;SDS011;27377;50.666;9.150;2022-09-16T04:28:22;4.47;;;1.67;;
41693;SDS011;27377;50.666;9.150;2022-09-16T04:30:48;6.23;;;2.07;;
41693;SDS011;27377;50.666;9.150;2022-09-16T04:33:14;4.50;;;1.90;;
41693;SDS011;27377;50.666;9.150;2022-09-16T04:35:39;4.88;;;1.77;;
41693;SDS011;27377;50.666;9.150;2022-09-16T04:38:05;6.10;;;1.80;;
41693;SDS011;27377;50.666;9.150;2022-09-16T04:40:30;5.68;;;1.90;;
41693;SDS011;27377;50.666;9.150;2022-09-16T04:42:56;5.50;;;1.80;;
41693;SDS011;27377;50.666;9.150;2022-09-16T04:45:22;5.90;;;1.80;;
41693;SDS011;27377;50.666;9.150;2022-09-16T04:47:54;4.70;;;1.80;;
41693;SDS011;27377;50.666;9.150;2022-09-16T04:50:20;5.63;;;1.80;;
41693;SDS011;27377;50.666;9.150;2022-09-16T04:52:46;7.10;;;1.93;;
41693;SDS011;27377;50.666;9.150;2022-09-16T04:55:12;3.83;;;1.40;;
41693;SDS011;27377;50.666;9.150;2022-09-16T04:57:38;7.80;;;1.80;;
41693;SDS011;27377;50.666;9.150;2022-09-16T05:00:04;5.07;;;1.90;;
41693;SDS011;27377;50.666;9.150;2022-09-16T05:02:30;6.20;;;1.50;;
41693;SDS011;27377;50.666;9.150;2022-09-16T05:04:55;5.85;;;1.60;;
41693;SDS011;27377;50.666;9.150;2022-09-16T05:07:24;3.83;;;1.50;;
41693;SDS011;27377;50.666;9.150;2022-09-16T05:09:57;3.47;;;1.40;;
41693;SDS011;27377;50.666;9.150;2022-09-16T05:12:23;4.60;;;1.43;;
41693;SDS011;27377;50.666;9.150;2022-09-16T05:14:48;3.70;;;1.50;;
41693;SDS011;27377;50.666;9.150;2022-09-16T05:17:14;4.90;;;1.57;;
41693;SDS011;27377;50.666;9.150;2022-09-16T05:19:40;4.55;;;1.60;;
41693;SDS011;27377;50.666;9.150;2022-09-16T05:22:06;6.20;;;1.50;;
41693;SDS011;27377;50.666;9.150;2022-09-16T05:24:34;4.50;;;1.60;;
41693;SDS011;27377;50.666;9.150;2022-09-16T05:27:03;4.68;;;1.50;;
41693;SDS011;27377;50.666;9.150;2022-09-16T05:29:28;5.47;;;1.60;;
41693;SDS011;27377;50.666;9.150;2022-09-16T05:31:54;3.53;;;1.40;;
41693;SDS011;27377;50.666;9.150;2022-09-16T05:34:21;5.25;;;1.67;;
41693;SDS011;27377;50.666;9.150;2022-09-16T05:36:53;5.38;;;1.60;;
41693;SDS011;27377;50.666;9.150;2022-09-16T05:39:20;5.90;;;1.80;;
41693;SDS011;27377;50.666;9.150;2022-09-16T05:41:47;5.10;;;1.52;;
41693;SDS011;27377;50.666;9.150;2022-09-16T05:44:13;3.40;;;1.50;;
41693;SDS011;27377;50.666;9.150;2022-09-16T05:46:42;7.88;;;1.70;;
41693;SDS011;27377;50.666;9.150;2022-09-16T05:49:08;6.15;;;1.80;;
41693;SDS011;27377;50.666;9.150;2022-09-16T05:51:35;8.10;;;2.03;;
41693;SDS011;27377;50.666;9.150;2022-09-16T05:54:01;7.55;;;1.90;;
41693;SDS011;27377;50.666;9.150;2022-09-16T05:56:28;7.47;;;2.10;;
41693;SDS011;27377;50.666;9.150;2022-09-16T05:58:56;8.27;;;2.20;;
41693;SDS011;27377;50.666;9.150;2022-09-16T06:01:25;7.28;;;1.92;;
41693;SDS011;27377;50.666;9.150;2022-09-16T06:03:52;6.28;;;1.88;;
41693;SDS011;27377;50.666;9.150;2022-09-16T06:06:21;9.05;;;2.05;;
41693;SDS011;27377;50.666;9.150;2022-09-16T06:08:47;6.20;;;2.00;;
41693;SDS011;27377;50.666;9.150;2022-09-16T06:11:16;7.93;;;1.80;;
41693;SDS011;27377;50.666;9.150;2022-09-16T06:13:42;5.73;;;1.90;;
41693;SDS011;27377;50.666;9.150;2022-09-16T06:16:09;6.22;;;1.80;;
41693;SDS011;27377;50.666;9.150;2022-09-16T06:18:34;7.43;;;1.93;;
41693;SDS011;27377;50.666;9.150;2022-09-16T06:21:05;7.20;;;1.90;;
41693;SDS011;27377;50.666;9.150;2022-09-16T06:23:33;6.18;;;2.28;;
41693;SDS011;27377;50.666;9.150;2022-09-16T06:26:18;5.90;;;1.97;;
41693;SDS011;27377;50.666;9.150;2022-09-16T06:28:47;6.30;;;2.20;;
41693;SDS011;27377;50.666;9.150;2022-09-16T06:31:14;8.82;;;2.60;;
41693;SDS011;27377;50.666;9.150;2022-09-16T06:33:45;6.93;;;2.50;;
41693;SDS011;27377;50.666;9.150;2022-09-16T06:36:13;7.15;;;2.25;;
41693;SDS011;27377;50.666;9.150;2022-09-16T06:38:41;6.37;;;2.07;;
41693;SDS011;27377;50.666;9.150;2022-09-16T06:41:09;8.73;;;2.55;;
41693;SDS011;27377;50.666;9.150;2022-09-16T06:43:36;7.53;;;2.47;;
41693;SDS011;27377;50.666;9.150;2022-09-16T06:46:03;8.35;;;2.50;;
41693;SDS011;27377;50.666;9.150;2022-09-16T06:48:33;8.27;;;2.27;;
41693;SDS011;27377;50.666;9.150;2022-09-16T06:51:05;7.38;;;2.45;;
41693;SDS011;27377;50.666;9.150;2022-09-16T06:53:33;7.33;;;2.60;;
41693;SDS011;27377;50.666;9.150;2022-09-16T06:55:59;7.45;;;2.50;;
41693;SDS011;27377;50.666;9.150;2022-09-16T06:58:26;6.07;;;2.30;;
41693;SDS011;27377;50.666;9.150;2022-09-16T07:00:55;6.97;;;2.50;;
41693;SDS011;27377;50.666;9.150;2022-09-16T07:03:21;8.15;;;2.40;;
41693;SDS011;27377;50.666;9.150;2022-09-16T07:05:56;7.82;;;2.47;;
41693;SDS011;27377;50.666;9.150;2022-09-16T07:08:26;9.85;;;2.45;;
41693;SDS011;27377;50.666;9.150;2022-09-16T07:10:59;5.87;;;2.33;;
41693;SDS011;27377;50.666;9.150;2022-09-16T07:13:25;6.75;;;2.50;;
41693;SDS011;27377;50.666;9.150;2022-09-16T07:15:51;6.78;;;2.30;;
41693;SDS011;27377;50.666;9.150;2022-09-16T07:18:17;6.05;;;2.20;;
41693;SDS011;27377;50.666;9.150;2022-09-16T07:20:42;6.40;;;2.10;;
41693;SDS011;27377;50.666;9.150;2022-09-16T07:23:08;6.57;;;2.60;;
41693;SDS011;27377;50.666;9.150;2022-09-16T07:25:33;6.40;;;1.90;;
41693;SDS011;27377;50.666;9.150;2022-09-16T07:27:59;7.80;;;2.50;;
41693;SDS011;27377;50.666;9.150;2022-09-16T07:30:25;6.43;;;1.77;;
41693;SDS011;27377;50.666;9.150;2022-09-16T07:32:52;7.05;;;2.35;;
41693;SDS011;27377;50.666;9.150;2022-09-16T07:35:17;7.30;;;1.90;;
41693;SDS011;27377;50.666;9.150;2022-09-16T07:37:43;5.77;;;1.90;;
41693;SDS011;27377;50.666;9.150;2022-09-16T07:40:09;7.60;;;1.83;;
41693;SDS011;27377;50.666;9.150;2022-09-16T07:42:34;5.70;;;2.00;;
41693;SDS011;27377;50.666;9.150;2022-09-16T07:45:00;5.53;;;1.60;;
41693;SDS011;27377;50.666;9.150;2022-09-16T07:47:25;6.43;;;1.87;;
41693;SDS011;27377;50.666;9.150;2022-09-16T07:49:51;6.60;;;1.60;;
41693;SDS011;27377;50.666;9.150;2022-09-16T07:52:20;6.40;;;1.73;;
41693;SDS011;27377;50.666;9.150;2022-09-16T07:54:47;5.63;;;1.65;;
41693;SDS011;27377;50.666;9.150;2022-09-16T07:57:14;5.65;;;1.50;;
41693;SDS011;27377;50.666;9.150;2022-09-16T07:59:40;6.93;;;1.60;;
41693;SDS011;27377;50.666;9.150;2022-09-16T08:02:05;5.30;;;1.48;;
41693;SDS011;27377;50.666;9.150;2022-09-16T08:04:31;6.10;;;1.60;;
41693;SDS011;27377;50.666;9.150;2022-09-16T08:06:56;7.53;;;1.80;;
41693;SDS011;27377;50.666;9.150;2022-09-16T08:09:22;6.00;;;1.30;;
41693;SDS011;27377;50.666;9.150;2022-09-16T08:11:47;8.47;;;1.40;;
41693;SDS011;27377;50.666;9.150;2022-09-16T08:14:13;6.87;;;1.57;;
41693;SDS011;27377;50.666;9.150;2022-09-16T08:16:38;7.80;;;1.50;;
41693;SDS011;27377;50.666;9.150;2022-09-16T08:19:04;6.53;;;1.47;;
41693;SDS011;27377;50.666;9.150;2022-09-16T08:21:29;5.65;;;1.27;;
41693;SDS011;27377;50.666;9.150;2022-09-16T08:23:55;7.53;;;1.50;;
41693;SDS011;27377;50.666;9.150;2022-09-16T08:26:21;9.98;;;1.63;;
41693;SDS011;27377;50.666;9.150;2022-09-16T08:28:47;6.87;;;1.43;;
41693;SDS011;27377;50.666;9.150;2022-09-16T08:31:13;5.88;;;1.38;;
41693;SDS011;27377;50.666;9.150;2022-09-16T08:33:39;5.80;;;1.40;;
41693;SDS011;27377;50.666;9.150;2022-09-16T08:36:16;7.10;;;1.50;;
41693;SDS011;27377;50.666;9.150;2022-09-16T08:38:44;6.55;;;1.45;;
41693;SDS011;27377;50.666;9.150;2022-09-16T08:41:20;6.35;;;1.30;;
41693;SDS011;27377;50.666;9.150;2022-09-16T08:49:19;6.20;;;1.50;;
41693;SDS011;27377;50.666;9.150;2022-09-16T08:51:50;5.53;;;1.50;;
41693;SDS011;27377;50.666;9.150;2022-09-16T08:54:25;5.38;;;1.40;;
41693;SDS011;27377;50.666;9.150;2022-09-16T08:56:57;6.43;;;1.42;;
41693;SDS011;27377;50.666;9.150;2022-09-16T08:59:27;5.65;;;1.40;;
41693;SDS011;27377;50.666;9.150;2022-09-16T09:01:58;4.88;;;1.20;;
41693;SDS011;27377;50.666;9.150;2022-09-16T09:04:49;5.00;;;1.50;;
41693;SDS011;27377;50.666;9.150;2022-09-16T09:07:34;5.50;;;1.30;;
41693;SDS011;27377;50.666;9.150;2022-09-16T09:10:21;6.20;;;1.58;;
41693;SDS011;27377;50.666;9.150;2022-09-16T09:15:35;5.90;;;1.48;;
41693;SDS011;27377;50.666;9.150;2022-09-16T09:18:20;5.82;;;1.50;;
41693;SDS011;27377;50.666;9.150;2022-09-16T09:21:07;5.45;;;1.42;;
41693;SDS011;27377;50.666;9.150;2022-09-16T09:26:50;7.78;;;1.65;;
41693;SDS011;27377;50.666;9.150;2022-09-16T09:29:42;5.85;;;1.60;;
41693;SDS011;27377;50.666;9.150;2022-09-16T09:32:20;5.30;;;1.60;;
41693;SDS011;27377;50.666;9.150;2022-09-16T09:35:14;7.80;;;1.70;;
41693;SDS011;27377;50.666;9.150;2022-09-16T09:38:28;5.13;;;1.70;;
41693;SDS011;27377;50.666;9.150;2022-09-16T09:40:57;6.05;;;1.38;;
41693;SDS011;27377;50.666;9.150;2022-09-16T09:43:45;6.65;;;1.38;;
41693;SDS011;27377;50.666;9.150;2022-09-16T09:46:24;5.10;;;1.45;;
41693;SDS011;27377;50.666;9.150;2022-09-16T09:49:01;4.55;;;1.40;;
41693;SDS011;27377;50.666;9.150;2022-09-16T09:51:37;4.95;;;1.40;;
41693;SDS011;27377;50.666;9.150;2022-09-16T09:54:28;5.03;;;1.33;;
41693;SDS011;27377;50.666;9.150;2022-09-16T09:57:00;4.57;;;1.20;;
41693;SDS011;27377;50.666;9.150;2022-09-16T10:02:19;4.72;;;1.20;;
41693;SDS011;27377;50.666;9.150;2022-09-16T10:04:46;3.50;;;1.10;;
41693;SDS011;27377;50.666;9.150;2022-09-16T10:07:12;4.78;;;1.35;;
41693;SDS011;27377;50.666;9.150;2022-09-16T10:10:15;4.97;;;1.30;;
41693;SDS011;27377;50.666;9.150;2022-09-16T10:12:39;4.20;;;1.40;;
41693;SDS011;27377;50.666;9.150;2022-09-16T10:15:05;4.40;;;1.40;;
41693;SDS011;27377;50.666;9.150;2022-09-16T10:17:49;5.82;;;1.52;;
41693;SDS011;27377;50.666;9.150;2022-09-16T10:20:35;5.95;;;1.80;;
41693;SDS011;27377;50.666;9.150;2022-09-16T10:25:31;3.95;;;1.38;;
41693;SDS011;27377;50.666;9.150;2022-09-16T10:30:49;2.97;;;1.33;;
41693;SDS011;27377;50.666;9.150;2022-09-16T10:33:22;6.03;;;1.60;;
41693;SDS011;27377;50.666;9.150;2022-09-16T10:35:54;5.78;;;1.50;;
41693;SDS011;27377;50.666;9.150;2022-09-16T10:38:23;4.07;;;1.40;;
41693;SDS011;27377;50.666;9.150;2022-09-16T10:40:54;4.57;;;1.45;;
41693;SDS011;27377;50.666;9.150;2022-09-16T10:43:25;5.13;;;1.60;;
41693;SDS011;27377;50.666;9.150;2022-09-16T10:45:53;4.32;;;1.60;;
41693;SDS011;27377;50.666;9.150;2022-09-16T10:48:20;3.88;;;1.30;;
41693;SDS011;27377;50.666;9.150;2022-09-16T10:50:51;3.67;;;1.42;;
41693;SDS011;27377;50.666;9.150;2022-09-16T10:53:22;4.78;;;1.58;;
41693;SDS011;27377;50.666;9.150;2022-09-16T10:56:00;5.65;;;1.30;;
41693;SDS011;27377;50.666;9.150;2022-09-16T10:58:28;5.10;;;1.33;;
41693;SDS011;27377;50.666;9.150;2022-09-16T11:06:26;5.97;;;1.40;;
41693;SDS011;27377;50.666;9.150;2022-09-16T11:14:40;5.28;;;1.70;;
41693;SDS011;27377;50.666;9.150;2022-09-16T11:23:23;4.63;;;1.70;;
41693;SDS011;27377;50.666;9.150;2022-09-16T11:26:06;3.23;;;1.50;;
41693;SDS011;27377;50.666;9.150;2022-09-16T11:28:48;6.85;;;1.50;;
41693;SDS011;27377;50.666;9.150;2022-09-16T11:31:43;3.88;;;1.30;;
41693;SDS011;27377;50.666;9.150;2022-09-16T11:34:42;4.47;;;1.38;;
41693;SDS011;27377;50.666;9.150;2022-09-16T11:43:00;3.95;;;1.20;;
41693;SDS011;27377;50.666;9.150;2022-09-16T11:49:03;2.70;;;1.10;;
41693;SDS011;27377;50.666;9.150;2022-09-16T11:57:10;2.50;;;0.90;;
41693;SDS011;27377;50.666;9.150;2022-09-16T11:59:44;2.65;;;0.90;;
41693;SDS011;27377;50.666;9.150;2022-09-16T12:02:27;2.38;;;0.88;;
41693;SDS011;27377;50.666;9.150;2022-09-16T12:05:02;2.25;;;0.90;;
41693;SDS011;27377;50.666;9.150;2022-09-16T12:07:39;2.58;;;0.90;;
41693;SDS011;27377;50.666;9.150;2022-09-16T12:10:20;2.97;;;1.10;;
41693;SDS011;27377;50.666;9.150;2022-09-16T12:12:59;3.37;;;1.10;;
41693;SDS011;27377;50.666;9.150;2022-09-16T12:15:31;3.33;;;1.23;;
41693;SDS011;27377;50.666;9.150;2022-09-16T12:18:15;4.23;;;1.30;;
41693;SDS011;27377;50.666;9.150;2022-09-16T12:20:49;3.90;;;1.27;;
41693;SDS011;27377;50.666;9.150;2022-09-16T12:23:23;2.97;;;1.10;;
41693;SDS011;27377;50.666;9.150;2022-09-16T12:26:04;2.97;;;1.23;;
41693;SDS011;27377;50.666;9.150;2022-09-16T12:28:39;3.28;;;1.13;;
41693;SDS011;27377;50.666;9.150;2022-09-16T12:31:18;3.03;;;1.30;;
41693;SDS011;27377;50.666;9.150;2022-09-16T12:33:52;4.00;;;1.10;;
41693;SDS011;27377;50.666;9.150;2022-09-16T12:36:22;3.25;;;1.30;;
41693;SDS011;27377;50.666;9.150;2022-09-16T12:38:52;3.33;;;1.40;;
41693;SDS011;27377;50.666;9.150;2022-09-16T12:52:22;4.35;;;1.30;;
41693;SDS011;27377;50.666;9.150;2022-09-16T13:03:25;4.95;;;1.40;;
41693;SDS011;27377;50.666;9.150;2022-09-16T13:05:53;4.22;;;1.20;;
41693;SDS011;27377;50.666;9.150;2022-09-16T13:08:24;2.40;;;1.30;;
41693;SDS011;27377;50.666;9.150;2022-09-16T13:10:59;2.88;;;1.30;;
41693;SDS011;27377;50.666;9.150;2022-09-16T13:16:04;3.10;;;1.35;;
41693;SDS011;27377;50.666;9.150;2022-09-16T13:21:21;3.08;;;1.08;;
41693;SDS011;27377;50.666;9.150;2022-09-16T13:24:10;2.60;;;1.10;;
41693;SDS011;27377;50.666;9.150;2022-09-16T13:26:41;4.57;;;1.33;;
41693;SDS011;27377;50.666;9.150;2022-09-16T13:31:58;3.17;;;1.23;;
41693;SDS011;27377;50.666;9.150;2022-09-16T13:34:24;3.80;;;1.30;;
41693;SDS011;27377;50.666;9.150;2022-09-16T13:36:50;3.38;;;1.20;;
41693;SDS011;27377;50.666;9.150;2022-09-16T13:39:26;2.70;;;1.10;;
41693;SDS011;27377;50.666;9.150;2022-09-16T13:41:54;3.10;;;1.20;;
41693;SDS011;27377;50.666;9.150;2022-09-16T13:49:35;3.53;;;1.23;;
41693;SDS011;27377;50.666;9.150;2022-09-16T13:52:09;4.13;;;1.60;;
41693;SDS011;27377;50.666;9.150;2022-09-16T13:54:55;3.20;;;1.25;;
41693;SDS011;27377;50.666;9.150;2022-09-16T14:00:03;4.10;;;1.42;;
41693;SDS011;27377;50.666;9.150;2022-09-16T14:13:39;3.63;;;1.38;;
41693;SDS011;27377;50.666;9.150;2022-09-16T14:16:31;4.00;;;1.30;;
41693;SDS011;27377;50.666;9.150;2022-09-16T14:19:01;3.00;;;1.10;;
41693;SDS011;27377;50.666;9.150;2022-09-16T14:22:01;6.80;;;1.30;;
41693;SDS011;27377;50.666;9.150;2022-09-16T14:24:38;3.00;;;1.00;;
41693;SDS011;27377;50.666;9.150;2022-09-16T14:27:16;4.27;;;1.00;;
41693;SDS011;27377;50.666;9.150;2022-09-16T14:29:59;3.20;;;0.93;;
41693;SDS011;27377;50.666;9.150;2022-09-16T14:32:30;1.85;;;0.70;;
41693;SDS011;27377;50.666;9.150;2022-09-16T14:34:58;3.40;;;0.80;;
41693;SDS011;27377;50.666;9.150;2022-09-16T14:37:27;2.23;;;0.80;;
41693;SDS011;27377;50.666;9.150;2022-09-16T14:39:55;1.33;;;0.52;;
41693;SDS011;27377;50.666;9.150;2022-09-16T14:42:28;2.00;;;0.50;;
41693;SDS011;27377;50.666;9.150;2022-09-16T14:44:55;1.58;;;0.80;;
41693;SDS011;27377;50.666;9.150;2022-09-16T14:47:37;1.35;;;0.50;;
41693;SDS011;27377;50.666;9.150;2022-09-16T14:50:04;1.93;;;0.60;;
41693;SDS011;27377;50.666;9.150;2022-09-16T14:52:36;2.25;;;0.60;;
41693;SDS011;27377;50.666;9.150;2022-09-16T14:55:06;1.67;;;0.40;;
41693;SDS011;27377;50.666;9.150;2022-09-16T14:57:37;3.55;;;0.70;;
41693;SDS011;27377;50.666;9.150;2022-09-16T15:00:03;1.90;;;0.50;;
41693;SDS011;27377;50.666;9.150;2022-09-16T15:02:42;2.88;;;0.50;;
41693;SDS011;27377;50.666;9.150;2022-09-16T15:08:24;4.18;;;1.00;;
41693;SDS011;27377;50.666;9.150;2022-09-16T15:10:56;4.70;;;0.98;;
41693;SDS011;27377;50.666;9.150;2022-09-16T15:13:25;2.97;;;1.00;;
41693;SDS011;27377;50.666;9.150;2022-09-16T15:16:00;2.97;;;1.10;;
41693;SDS011;27377;50.666;9.150;2022-09-16T15:18:36;2.20;;;0.90;;
41693;SDS011;27377;50.666;9.150;2022-09-16T15:21:05;1.95;;;0.90;;
41693;SDS011;27377;50.666;9.150;2022-09-16T15:23:32;1.77;;;0.88;;
41693;SDS011;27377;50.666;9.150;2022-09-16T15:26:20;3.47;;;0.80;;
41693;SDS011;27377;50.666;9.150;2022-09-16T15:28:52;1.63;;;0.82;;
41693;SDS011;27377;50.666;9.150;2022-09-16T15:34:04;2.63;;;0.80;;
41693;SDS011;27377;50.666;9.150;2022-09-16T15:39:46;2.28;;;0.70;;
41693;SDS011;27377;50.666;9.150;2022-09-16T15:44:33;2.90;;;0.70;;
41693;SDS011;27377;50.666;9.150;2022-09-16T15:46:59;2.28;;;0.80;;
41693;SDS011;27377;50.666;9.150;2022-09-16T15:49:29;2.15;;;0.80;;
41693;SDS011;27377;50.666;9.150;2022-09-16T15:52:05;1.73;;;0.85;;
41693;SDS011;27377;50.666;9.150;2022-09-16T15:54:47;2.03;;;0.73;;
41693;SDS011;27377;50.666;9.150;2022-09-16T15:57:34;2.70;;;0.60;;
41693;SDS011;27377;50.666;9.150;2022-09-16T16:00:08;2.13;;;0.60;;
41693;SDS011;27377;50.666;9.150;2022-09-16T16:05:21;2.38;;;0.60;;
41693;SDS011;27377;50.666;9.150;2022-09-16T16:07:49;1.42;;;0.68;;
41693;SDS011;27377;50.666;9.150;2022-09-16T16:10:18;1.92;;;0.85;;
41693;SDS011;27377;50.666;9.150;2022-09-16T16:12:46;4.40;;;1.20;;
41693;SDS011;27377;50.666;9.150;2022-09-16T16:15:14;2.83;;;1.00;;
41693;SDS011;27377;50.666;9.150;2022-09-16T16:17:41;3.23;;;1.10;;
41693;SDS011;27377;50.666;9.150;2022-09-16T16:20:07;3.65;;;1.10;;
41693;SDS011;27377;50.666;9.150;2022-09-16T16:22:37;2.90;;;1.00;;
41693;SDS011;27377;50.666;9.150;2022-09-16T16:25:03;2.85;;;1.00;;
41693;SDS011;27377;50.666;9.150;2022-09-16T16:27:29;3.10;;;1.00;;
41693;SDS011;27377;50.666;9.150;2022-09-16T16:29:54;2.47;;;0.90;;
41693;SDS011;27377;50.666;9.150;2022-09-16T16:32:20;2.80;;;0.90;;
41693;SDS011;27377;50.666;9.150;2022-09-16T16:34:46;2.37;;;0.90;;
41693;SDS011;27377;50.666;9.150;2022-09-16T16:37:14;2.13;;;0.80;;
41693;SDS011;27377;50.666;9.150;2022-09-16T16:39:41;2.35;;;0.88;;
41693;SDS011;27377;50.666;9.150;2022-09-16T16:42:08;2.28;;;0.90;;
41693;SDS011;27377;50.666;9.150;2022-09-16T16:44:37;2.17;;;0.80;;
41693;SDS011;27377;50.666;9.150;2022-09-16T16:47:03;1.83;;;0.70;;
41693;SDS011;27377;50.666;9.150;2022-09-16T16:49:29;2.03;;;0.80;;
41693;SDS011;27377;50.666;9.150;2022-09-16T16:51:54;2.13;;;0.60;;
41693;SDS011;27377;50.666;9.150;2022-09-16T16:54:21;1.90;;;0.60;;
41693;SDS011;27377;50.666;9.150;2022-09-16T16:56:47;2.13;;;0.60;;
41693;SDS011;27377;50.666;9.150;2022-09-16T16:59:13;2.13;;;0.68;;
41693;SDS011;27377;50.666;9.150;2022-09-16T17:01:39;2.50;;;0.70;;
41693;SDS011;27377;50.666;9.150;2022-09-16T17:04:06;1.27;;;0.50;;
41693;SDS011;27377;50.666;9.150;2022-09-16T17:06:33;4.05;;;0.57;;
41693;SDS011;27377;50.666;9.150;2022-09-16T17:08:59;2.00;;;0.63;;
41693;SDS011;27377;50.666;9.150;2022-09-16T17:11:25;1.05;;;0.47;;
41693;SDS011;27377;50.666;9.150;2022-09-16T17:13:53;2.38;;;0.60;;
41693;SDS011;27377;50.666;9.150;2022-09-16T17:16:26;3.30;;;0.50;;
41693;SDS011;27377;50.666;9.150;2022-09-16T17:18:53;2.37;;;0.57;;
41693;SDS011;27377;50.666;9.150;2022-09-16T17:21:23;1.88;;;0.60;;
41693;SDS011;27377;50.666;9.150;2022-09-16T17:23:51;1.90;;;0.50;;
41693;SDS011;27377;50.666;9.150;2022-09-16T17:26:17;1.70;;;0.40;;
41693;SDS011;27377;50.666;9.150;2022-09-16T17:28:44;3.55;;;0.60;;
41693;SDS011;27377;50.666;9.150;2022-09-16T17:31:16;2.05;;;0.60;;
41693;SDS011;27377;50.666;9.150;2022-09-16T17:33:48;2.08;;;0.43;;
41693;SDS011;27377;50.666;9.150;2022-09-16T17:36:17;1.10;;;0.40;;
41693;SDS011;27377;50.666;9.150;2022-09-16T17:38:48;2.30;;;0.50;;
41693;SDS011;27377;50.666;9.150;2022-09-16T17:41:20;1.80;;;0.50;;
41693;SDS011;27377;50.666;9.150;2022-09-16T17:43:46;2.75;;;0.50;;
41693;SDS011;27377;50.666;9.150;2022-09-16T17:46:14;3.10;;;0.40;;